Time;durP1;ratioP1;P1;durP2;ratioP2;P2;SDS_P1;SDS_P2;PMS_P1;PMS_P2;Temp;Humidity;BMP_temperature;BMP_pressure;BME280_temperature;BME280_humidity;BME280_pressure;Samples;Min_cycle;Max_cycle;Signal;HPM_P1;HPM_P2
2022/04/26 03:37:19;;;;;;;5.37;4.10;;;10.70;99.90;10.10;97805.00;;;;5114277;28;20229;-72
2022/04/26 03:39:46;;;;;;;0.97;0.97;;;10.70;99.90;10.10;97805.00;;;;5114147;28;20205;-73
2022/04/26 03:42:13;;;;;;;1.73;1.63;;;10.80;99.90;10.20;97802.00;;;;5114014;28;20301;-71
2022/04/26 03:44:40;;;;;;;2.27;2.17;;;10.80;99.90;10.20;97812.00;;;;5113997;28;20316;-74
2022/04/26 03:47:07;;;;;;;2.50;2.30;;;10.80;99.90;10.20;97820.00;;;;5113878;28;20641;-71
2022/04/26 03:49:35;;;;;;;1.80;1.70;;;10.80;99.90;10.20;97801.00;;;;5113924;28;20242;-72
2022/04/26 03:52:05;;;;;;;3.17;2.97;;;10.80;99.90;10.10;97754.00;;;;5113776;28;20226;-75
2022/04/26 03:54:32;;;;;;;2.17;2.07;;;10.70;99.90;10.00;97801.00;;;;5113973;28;20285;-73
2022/04/26 03:56:58;;;;;;;2.00;1.90;;;10.70;99.90;10.00;97799.00;;;;5113775;28;20269;-75
2022/04/26 03:59:25;;;;;;;3.80;3.60;;;10.70;99.90;10.10;97798.00;;;;5113900;28;20518;-73
2022/04/26 04:01:52;;;;;;;0.93;0.93;;;10.70;99.90;10.10;97808.00;;;;5113854;28;20543;-72
2022/04/26 04:04:19;;;;;;;2.50;2.40;;;10.70;99.90;10.00;97815.00;;;;5113794;28;20226;-72
2022/04/26 04:06:46;;;;;;;3.47;3.07;;;10.70;99.90;10.00;97808.00;;;;5113775;28;20194;-72
2022/04/26 04:09:12;;;;;;;2.50;2.30;;;10.60;99.90;9.90;97813.00;;;;5113719;28;20221;-73
2022/04/26 04:11:39;;;;;;;1.67;1.57;;;10.70;99.90;9.80;97815.00;;;;5113751;28;20218;-72
2022/04/26 04:14:05;;;;;;;2.30;2.17;;;10.60;99.90;9.70;97817.00;;;;5113775;28;20575;-73
2022/04/26 04:16:34;;;;;;;2.13;1.73;;;10.50;99.90;9.70;97824.00;;;;5113622;28;20249;-73
2022/04/26 04:19:19;;;;;;;1.73;1.63;;;10.40;99.90;9.80;97827.00;;;;5114120;28;20254;-72
2022/04/26 04:21:50;;;;;;;1.87;1.60;;;10.50;99.90;9.80;97824.00;;;;5114131;28;20194;-73
2022/04/26 04:24:18;;;;;;;4.63;2.90;;;10.50;99.90;9.80;97825.00;;;;5113594;28;20198;-73
2022/04/26 04:26:45;;;;;;;1.87;1.77;;;10.50;99.90;9.80;97827.00;;;;5097058;28;20202;-73
2022/04/26 04:29:12;;;;;;;1.83;1.73;;;10.50;99.90;9.80;97833.00;;;;5099109;28;20226;-72
2022/04/26 04:31:40;;;;;;;2.10;1.87;;;10.50;99.90;9.90;97833.00;;;;5117071;28;20308;-73
2022/04/26 04:34:06;;;;;;;1.97;1.87;;;10.50;99.90;9.80;97837.00;;;;5117173;28;20233;-73
2022/04/26 04:36:33;;;;;;;2.93;2.73;;;10.40;99.90;9.80;97839.00;;;;5116921;28;20229;-72
2022/04/26 04:39:00;;;;;;;2.53;2.37;;;10.40;99.90;9.80;97846.00;;;;5117014;28;20281;-71
2022/04/26 04:41:27;;;;;;;2.60;2.40;;;10.40;99.90;9.80;97850.00;;;;5116937;28;20291;-71
2022/04/26 04:43:54;;;;;;;2.20;2.10;;;10.40;99.90;9.80;97840.00;;;;5116718;28;20232;-72
2022/04/26 04:46:20;;;;;;;2.53;2.33;;;10.50;99.90;9.70;97848.00;;;;5116797;28;20244;-72
2022/04/26 04:48:47;;;;;;;2.93;2.70;;;10.40;99.90;9.80;97850.00;;;;5116691;28;20213;-73
2022/04/26 04:51:13;;;;;;;2.00;1.90;;;10.40;99.90;9.80;97844.00;;;;5116779;28;20218;-72
2022/04/26 04:53:42;;;;;;;1.83;1.77;;;10.50;99.90;9.70;97839.00;;;;5124104;28;20287;-72
2022/04/26 04:56:12;;;;;;;3.30;3.00;;;10.40;99.90;9.80;97827.00;;;;5124041;28;20229;-73
2022/04/26 04:58:39;;;;;;;2.23;2.13;;;10.40;99.90;9.70;97833.00;;;;5116646;28;20198;-73
2022/04/26 05:01:05;;;;;;;3.60;2.53;;;10.40;99.90;9.80;97827.00;;;;5116667;28;20269;-73
2022/04/26 05:03:34;;;;;;;2.73;2.53;;;10.50;99.90;9.90;97828.00;;;;5116331;28;20209;-73
2022/04/26 05:06:00;;;;;;;2.77;2.57;;;10.50;99.90;9.90;97825.00;;;;5116732;28;20670;-73
2022/04/26 05:08:27;;;;;;;2.53;2.33;;;10.50;99.90;9.90;97819.00;;;;5116343;28;20198;-73
2022/04/26 05:10:56;;;;;;;8.70;3.97;;;10.60;99.90;10.00;97826.00;;;;5098250;28;20222;-72
2022/04/26 05:13:26;;;;;;;3.40;2.60;;;10.60;99.90;9.90;97825.00;;;;5122855;28;20206;-73
2022/04/26 05:15:52;;;;;;;2.83;2.63;;;10.60;99.90;10.00;97849.00;;;;5122382;28;20222;-73
2022/04/26 05:18:19;;;;;;;2.03;1.93;;;10.60;99.90;9.90;97843.00;;;;5116213;28;20205;-73
2022/04/26 05:20:45;;;;;;;1.37;1.37;;;10.60;99.90;10.00;97851.00;;;;5116351;28;20295;-73
2022/04/26 05:25:59;;;;;;;2.13;2.03;;;10.60;99.90;10.00;97844.00;;;;5116303;28;20569;-73
2022/04/26 05:28:26;;;;;;;2.97;2.77;;;10.70;99.90;10.00;97836.00;;;;5098274;28;20229;-73
2022/04/26 05:30:53;;;;;;;2.20;2.00;;;10.70;99.90;10.10;97832.00;;;;5116192;28;20300;-73
2022/04/26 05:33:21;;;;;;;1.77;1.67;;;10.70;99.90;10.00;97841.00;;;;5116060;28;20198;-73
2022/04/26 05:35:48;;;;;;;4.70;2.43;;;10.70;99.90;10.00;97844.00;;;;5115917;28;20255;-73
2022/04/26 05:38:18;;;;;;;1.80;1.70;;;10.70;99.90;10.10;97839.00;;;;5097533;28;20237;-74
2022/04/26 05:40:45;;;;;;;4.13;3.83;;;10.70;99.90;10.10;97845.00;;;;5097911;28;20255;-73
2022/04/26 05:43:11;;;;;;;2.00;1.90;;;10.70;99.90;10.20;97845.00;;;;5115964;28;20320;-75
2022/04/26 05:45:42;;;;;;;3.20;3.00;;;10.80;99.90;10.20;97850.00;;;;5097994;28;20238;-74
2022/04/26 05:48:08;;;;;;;2.20;2.07;;;10.80;99.90;10.20;97853.00;;;;5115894;28;20277;-74
2022/04/26 05:50:37;;;;;;;1.97;1.87;;;10.80;99.90;10.20;97861.00;;;;5115903;28;20225;-74
2022/04/26 05:53:04;;;;;;;2.70;2.50;;;10.80;99.90;10.30;97864.00;;;;5115767;28;20645;-73
2022/04/26 05:55:32;;;;;;;1.63;1.53;;;10.80;99.90;10.30;97862.00;;;;5115686;28;20271;-74
2022/04/26 05:57:59;;;;;;;1.60;1.50;;;10.90;99.90;10.30;97860.00;;;;5115752;28;20202;-75
2022/04/26 06:00:25;;;;;;;1.63;1.53;;;10.90;99.90;10.40;97870.00;;;;5115707;28;20698;-78
2022/04/26 06:02:53;;;;;;;1.90;1.80;;;11.00;99.90;10.40;97861.00;;;;5115765;28;20296;-79
2022/04/26 06:05:19;;;;;;;2.67;2.47;;;11.00;99.90;10.40;97855.00;;;;5115790;28;20198;-78
2022/04/26 06:07:46;;;;;;;2.10;2.00;;;11.00;99.90;10.40;97858.00;;;;5115642;28;20258;-77
2022/04/26 06:10:13;;;;;;;2.63;2.43;;;11.00;99.90;10.40;97864.00;;;;5115471;28;20198;-77
2022/04/26 06:12:42;;;;;;;3.67;2.67;;;11.10;99.90;10.40;97880.00;;;;5115612;28;20231;-77
2022/04/26 06:15:10;;;;;;;2.23;2.13;;;11.10;99.90;10.40;97877.00;;;;5115467;28;20531;-75
2022/04/26 06:17:36;;;;;;;3.03;2.40;;;11.10;99.90;10.30;97879.00;;;;5115626;28;20263;-73
2022/04/26 06:20:07;;;;;;;3.33;3.13;;;11.00;99.90;10.30;97881.00;;;;5115436;28;20651;-77
2022/04/26 06:22:34;;;;;;;2.07;1.97;;;10.90;99.90;10.30;97882.00;;;;5115365;28;20281;-76
2022/04/26 06:25:00;;;;;;;3.23;3.03;;;11.00;99.90;10.50;97884.00;;;;5115258;28;20522;-77
2022/04/26 06:27:27;;;;;;;2.30;2.20;;;11.00;99.90;10.50;97887.00;;;;5115442;28;20367;-75
2022/04/26 06:29:53;;;;;;;4.03;3.70;;;11.10;99.90;10.60;97877.00;;;;5115351;28;20612;-74
2022/04/26 06:32:20;;;;;;;4.37;2.63;;;11.10;99.90;10.60;97882.00;;;;5115173;28;20225;-74
2022/04/26 06:34:47;;;;;;;2.77;2.57;;;11.20;99.90;10.60;97883.00;;;;5115185;28;20256;-73
2022/04/26 06:37:14;;;;;;;2.57;2.47;;;11.20;99.90;10.40;97885.00;;;;5115056;28;20281;-74
2022/04/26 06:39:43;;;;;;;2.10;1.93;;;11.20;99.90;10.40;97890.00;;;;5096945;28;20237;-75
2022/04/26 06:42:10;;;;;;;2.73;2.63;;;11.10;99.90;10.60;97889.00;;;;5114994;28;20202;-74
2022/04/26 06:44:37;;;;;;;3.67;3.47;;;11.20;99.90;10.70;97890.00;;;;5114991;28;20628;-74
2022/04/26 06:47:06;;;;;;;2.63;2.43;;;11.30;99.90;10.80;97892.00;;;;5114780;28;20677;-73
2022/04/26 06:49:32;;;;;;;2.70;2.50;;;11.30;99.90;10.90;97888.00;;;;5114076;28;20225;-74
2022/04/26 06:52:01;;;;;;;1.93;1.60;;;11.40;99.90;11.00;97882.00;;;;5114566;28;20217;-74
2022/04/26 06:54:28;;;;;;;3.73;2.93;;;11.50;99.90;11.10;97885.00;;;;5114848;28;20206;-74
2022/04/26 06:56:55;;;;;;;3.10;2.80;;;11.50;99.90;11.00;97888.00;;;;5114747;28;20194;-75
2022/04/26 06:59:21;;;;;;;3.97;3.57;;;11.60;99.90;11.10;97890.00;;;;5114688;28;20242;-74
2022/04/26 07:01:52;;;;;;;0.93;0.93;;;11.50;99.90;11.20;97889.00;;;;5114775;28;20526;-74
2022/04/26 07:04:19;;;;;;;1.90;1.80;;;11.60;99.40;10.70;97891.00;;;;5114638;28;20210;-74
2022/04/26 07:06:49;;;;;;;1.67;1.57;;;11.40;99.60;10.90;97893.00;;;;5117956;28;20190;-74
2022/04/26 07:09:16;;;;;;;2.17;2.07;;;11.40;99.90;10.60;97887.00;;;;5116497;28;20194;-74
2022/04/26 07:11:43;;;;;;;1.10;1.10;;;11.30;99.30;10.80;97900.00;;;;5114360;28;20229;-75
2022/04/26 07:14:11;;;;;;;2.33;2.23;;;11.30;99.60;10.90;97889.00;;;;5114443;28;20220;-73
2022/04/26 07:16:37;;;;;;;1.03;1.03;;;11.40;99.40;10.90;97891.00;;;;5114782;28;20201;-73
2022/04/26 07:19:05;;;;;;;1.57;1.47;;;11.50;98.30;10.80;97882.00;;;;5114521;28;20217;-73
2022/04/26 07:21:32;;;;;;;1.10;1.10;;;11.50;97.10;10.80;97881.00;;;;5114284;28;20253;-72
2022/04/26 07:24:00;;;;;;;1.37;1.33;;;11.40;96.60;10.60;97876.00;;;;5114345;28;20263;-73
2022/04/26 07:26:27;;;;;;;1.20;1.20;;;11.30;94.90;10.70;97877.00;;;;5096362;28;20208;-73
2022/04/26 07:28:55;;;;;;;2.10;1.13;;;11.30;94.60;10.70;97881.00;;;;5114250;28;20276;-73
2022/04/26 07:31:24;;;;;;;1.43;1.43;;;11.20;93.90;10.80;97882.00;;;;5114179;28;20229;-74
2022/04/26 07:36:35;;;;;;;1.53;1.53;;;11.40;95.10;11.30;97876.00;;;;5114162;28;20193;-72
2022/04/26 07:39:02;;;;;;;1.20;1.20;;;11.60;94.40;11.00;97877.00;;;;5114122;28;20213;-72
2022/04/26 07:41:29;;;;;;;1.97;1.73;;;11.60;93.30;11.00;97867.00;;;;5114210;28;20606;-72
2022/04/26 07:43:56;;;;;;;1.10;1.10;;;11.50;94.10;11.10;97875.00;;;;5096277;28;20244;-73
2022/04/26 07:46:23;;;;;;;1.70;1.60;;;11.60;95.90;11.10;97875.00;;;;5114575;28;20208;-73
2022/04/26 07:48:50;;;;;;;0.93;0.93;;;11.60;93.70;11.20;97864.00;;;;5114134;28;20202;-73
2022/04/26 07:51:18;;;;;;;1.70;1.60;;;11.70;91.60;11.30;97871.00;;;;5095978;28;20261;-74
2022/04/26 07:53:44;;;;;;;1.03;1.03;;;11.70;93.10;11.30;97876.00;;;;5113988;28;20243;-73
2022/04/26 07:56:11;;;;;;;1.23;1.23;;;11.80;91.40;11.30;97870.00;;;;5113910;28;20291;-74
2022/04/26 07:58:38;;;;;;;1.93;1.83;;;11.80;91.20;11.50;97869.00;;;;5113910;28;20268;-75
2022/04/26 08:01:07;;;;;;;0.87;0.87;;;12.00;90.80;11.80;97878.00;;;;5114586;28;20255;-74
2022/04/26 08:03:35;;;;;;;1.23;1.23;;;12.20;91.20;11.80;97886.00;;;;5117634;28;20625;-72
2022/04/26 08:06:02;;;;;;;1.80;1.50;;;12.20;90.60;11.90;97893.00;;;;5117561;28;20186;-72
2022/04/26 08:08:28;;;;;;;1.03;1.03;;;12.40;90.60;11.90;97899.00;;;;5117696;28;20288;-73
2022/04/26 08:10:55;;;;;;;0.90;0.90;;;12.40;90.20;11.80;97917.00;;;;5117384;28;20248;-73
2022/04/26 08:13:21;;;;;;;1.87;1.77;;;12.30;89.00;11.70;97920.00;;;;5117456;28;20221;-72
2022/04/26 08:15:48;;;;;;;1.20;1.20;;;12.20;89.30;11.70;97921.00;;;;5117466;28;20225;-75
2022/04/26 08:18:17;;;;;;;0.73;0.73;;;12.20;89.50;12.00;97917.00;;;;5099207;28;20569;-73
2022/04/26 08:20:46;;;;;;;1.27;1.27;;;12.40;89.60;12.40;97926.00;;;;5099257;28;20190;-73
2022/04/26 08:23:13;;;;;;;1.40;1.40;;;12.60;88.90;12.30;97931.00;;;;5117443;28;20222;-73
2022/04/26 08:28:28;;;;;;;1.83;1.77;;;12.80;88.30;12.10;97949.00;;;;5117143;28;20252;-75
2022/04/26 08:30:56;;;;;;;1.67;1.57;;;12.80;85.70;12.50;97942.00;;;;5117319;28;20225;-76
2022/04/26 08:33:23;;;;;;;1.50;1.40;;;12.90;85.40;12.70;97944.00;;;;5116052;28;20539;-73
2022/04/26 08:35:50;;;;;;;1.93;1.83;;;13.10;86.10;12.80;97947.00;;;;5116966;28;20258;-75
2022/04/26 08:38:17;;;;;;;1.57;1.50;;;13.10;80.50;12.50;97956.00;;;;5117158;28;20212;-76
2022/04/26 08:40:43;;;;;;;1.20;1.13;;;13.00;77.40;12.20;97950.00;;;;5116944;28;20224;-74
2022/04/26 08:43:10;;;;;;;1.07;1.07;;;12.80;79.70;12.40;97941.00;;;;5117061;28;20222;-73
2022/04/26 08:45:38;;;;;;;1.77;1.67;;;12.90;77.60;12.70;97938.00;;;;5117539;28;20202;-73
2022/04/26 08:51:00;;;;;;;1.03;1.03;;;13.30;79.50;13.10;97970.00;;;;5116724;28;20300;-73
2022/04/26 08:53:28;;;;;;;1.67;1.57;;;13.40;80.30;12.90;97965.00;;;;5116807;28;20205;-76
2022/04/26 08:55:56;;;;;;;1.77;1.20;;;13.40;78.30;13.00;97961.00;;;;5116634;28;20253;-75
2022/04/26 08:58:25;;;;;;;1.27;1.20;;;13.40;79.10;12.90;97964.00;;;;5116717;28;20205;-75
2022/04/26 09:01:13;;;;;;;1.03;1.03;;;13.40;74.90;12.50;97979.00;;;;5098734;28;20198;-73
2022/04/26 09:03:54;;;;;;;1.47;1.37;;;13.10;77.40;12.50;97976.00;;;;5116714;28;20195;-75
2022/04/26 09:06:25;;;;;;;4.00;1.30;;;13.00;74.40;12.40;97976.00;;;;5102226;28;20206;-75
2022/04/26 09:09:06;;;;;;;1.70;1.37;;;13.00;71.00;12.50;97988.00;;;;5116520;28;20229;-74
2022/04/26 09:11:34;;;;;;;0.90;0.90;;;13.00;69.60;12.40;97980.00;;;;5098521;28;20213;-75
2022/04/26 09:14:08;;;;;;;1.23;1.20;;;12.90;68.60;12.30;97980.00;;;;5115410;28;20641;-76
2022/04/26 09:16:35;;;;;;;1.30;1.30;;;12.90;69.10;12.30;97974.00;;;;5116438;28;20224;-74
2022/04/26 09:19:06;;;;;;;1.17;1.17;;;12.90;65.00;12.80;97981.00;;;;5116385;28;20190;-74
2022/04/26 09:21:36;;;;;;;1.37;1.37;;;13.10;68.20;12.80;97982.00;;;;5116225;28;20228;-76
2022/04/26 09:24:06;;;;;;;1.47;1.37;;;13.30;64.60;12.70;97980.00;;;;5116332;28;20248;-76
2022/04/26 09:26:35;;;;;;;1.27;1.27;;;13.30;64.10;13.00;97985.00;;;;5116286;28;20194;-74
2022/04/26 09:29:03;;;;;;;1.90;1.37;;;13.40;63.80;13.20;97980.00;;;;5116547;28;20198;-76
2022/04/26 09:31:33;;;;;;;2.13;1.77;;;13.60;61.90;13.80;97982.00;;;;5116147;28;20229;-73
2022/04/26 09:34:05;;;;;;;1.50;1.50;;;14.00;61.70;13.90;97977.00;;;;5098020;28;20232;-75
2022/04/26 09:36:42;;;;;;;1.70;1.60;;;14.20;58.90;13.80;97988.00;;;;5116389;28;20198;-76
2022/04/26 09:39:17;;;;;;;0.83;0.83;;;14.40;56.60;13.60;97985.00;;;;5116502;28;20550;-74
2022/04/26 09:41:50;;;;;;;1.43;1.33;;;14.10;57.20;13.60;97982.00;;;;5116135;28;20228;-73
2022/04/26 09:44:16;;;;;;;0.70;0.70;;;14.10;57.20;13.60;97979.00;;;;5116171;28;20209;-75
2022/04/26 09:46:52;;;;;;;2.80;1.40;;;14.10;55.60;13.50;97991.00;;;;5115932;28;20221;-74
2022/04/26 09:49:21;;;;;;;0.83;0.83;;;14.00;54.50;13.20;97991.00;;;;5115990;28;20194;-74
2022/04/26 09:51:54;;;;;;;0.93;0.93;;;13.80;52.90;13.20;97998.00;;;;5115896;28;20293;-76
2022/04/26 09:54:23;;;;;;;0.93;0.93;;;13.80;50.90;13.10;97985.00;;;;5115988;28;20313;-77
2022/04/26 09:56:51;;;;;;;1.20;1.20;;;13.80;52.90;13.40;97981.00;;;;5116156;28;20718;-76
2022/04/26 09:59:27;;;;;;;0.93;0.93;;;13.90;53.00;13.70;97994.00;;;;5115773;28;20202;-77
2022/04/26 10:01:56;;;;;;;0.53;0.53;;;14.00;50.60;13.60;97985.00;;;;5115934;28;20208;-78
2022/04/26 10:04:25;;;;;;;1.47;1.37;;;14.10;50.60;13.90;97991.00;;;;5115818;28;20224;-78
2022/04/26 10:07:00;;;;;;;0.70;0.70;;;14.40;49.20;14.10;97993.00;;;;5115646;28;20748;-78
2022/04/26 10:09:28;;;;;;;1.30;1.30;;;14.40;49.90;13.60;97988.00;;;;5115665;28;20229;-76
2022/04/26 10:11:57;;;;;;;1.50;1.40;;;14.20;48.30;13.40;97979.00;;;;5097404;28;20229;-75
2022/04/26 10:14:30;;;;;;;1.00;1.00;;;13.90;47.60;13.60;97989.00;;;;5115784;28;20205;-76
2022/04/26 10:16:57;;;;;;;1.37;1.30;;;14.20;47.90;14.00;97993.00;;;;5115540;28;20209;-75
2022/04/26 10:19:37;;;;;;;1.10;1.00;;;14.40;49.00;14.30;97986.00;;;;5097538;28;20324;-75
2022/04/26 10:22:07;;;;;;;1.07;1.07;;;14.60;47.10;14.60;97989.00;;;;5115445;28;20212;-75
2022/04/26 10:24:36;;;;;;;1.50;1.40;;;15.00;49.20;14.80;97985.00;;;;5115187;28;20201;-76
2022/04/26 10:27:25;;;;;;;0.73;0.73;;;15.20;44.20;14.90;97992.00;;;;5115371;28;20194;-79
2022/04/26 10:29:52;;;;;;;1.80;0.93;;;15.30;45.40;14.50;97987.00;;;;5108847;28;20210;-75
2022/04/26 10:32:30;;;;;;;0.60;0.60;;;15.10;43.40;14.50;97990.00;;;;5115155;28;20246;-76
2022/04/26 10:35:28;;;;;;;1.00;1.00;;;15.10;44.40;14.80;97999.00;;;;5116470;28;20257;-77
2022/04/26 10:38:16;;;;;;;1.00;1.00;;;15.20;47.10;14.50;97994.00;;;;5119637;28;20587;-75
2022/04/26 10:41:09;;;;;;;0.83;0.83;;;15.10;44.60;14.80;97987.00;;;;5117932;28;20209;-76
2022/04/26 10:43:36;;;;;;;1.10;1.10;;;15.20;44.60;15.40;97980.00;;;;5115057;28;20629;-76
2022/04/26 10:46:13;;;;;;;2.40;1.23;;;15.60;44.70;15.70;97988.00;;;;5114939;28;20301;-77
2022/04/26 10:48:40;;;;;;;0.97;0.97;;;15.90;42.50;15.60;97991.00;;;;5115337;28;20285;-76
2022/04/26 10:51:33;;;;;;;1.27;1.17;;;16.00;40.10;15.90;97992.00;;;;5114803;28;20210;-74
2022/04/26 10:54:00;;;;;;;1.20;1.20;;;16.20;40.80;15.70;98011.00;;;;5114946;28;20210;-75
2022/04/26 10:56:27;;;;;;;0.80;0.80;;;16.10;43.00;15.00;98026.00;;;;5114959;28;20705;-74
2022/04/26 10:58:54;;;;;;;1.10;1.10;;;15.70;44.80;14.50;98044.00;;;;5114706;28;20250;-74
2022/04/26 11:01:24;;;;;;;1.37;1.33;;;15.40;46.50;13.70;98050.00;;;;5114885;28;20217;-75
2022/04/26 11:03:55;;;;;;;0.90;0.90;;;14.70;50.20;13.60;98049.00;;;;5114928;28;20190;-78
2022/04/26 11:06:36;;;;;;;0.97;0.97;;;14.30;52.50;13.70;98065.00;;;;5114878;28;20198;-76
2022/04/26 11:09:08;;;;;;;0.80;0.80;;;14.30;52.20;13.30;98074.00;;;;5114709;28;20217;-79
2022/04/26 11:11:47;;;;;;;1.30;1.27;;;14.10;52.20;13.30;98065.00;;;;5114396;28;20276;-80
2022/04/26 11:14:15;;;;;;;1.00;1.00;;;13.90;53.30;13.10;98070.00;;;;5096883;28;20670;-79
2022/04/26 11:16:55;;;;;;;1.80;1.17;;;13.80;53.70;13.00;98066.00;;;;5096771;28;20201;-79
2022/04/26 11:19:28;;;;;;;1.40;1.40;;;13.60;53.40;13.20;98071.00;;;;5114955;28;20201;-78
2022/04/26 11:21:56;;;;;;;1.27;1.10;;;13.70;53.80;13.50;98063.00;;;;5117452;28;20174;-80
2022/04/26 11:29:54;;;;;;;0.77;0.77;;;14.20;54.30;13.60;98082.00;;;;5114532;28;20201;-80
2022/04/26 11:32:31;;;;;;;0.77;0.77;;;14.00;53.40;13.80;98073.00;;;;5114718;28;20403;-80
2022/04/26 11:34:58;;;;;;;1.23;1.13;;;14.10;53.80;13.60;98075.00;;;;5114663;28;20201;-79
2022/04/26 11:37:25;;;;;;;1.40;1.33;;;14.10;52.80;14.10;98069.00;;;;5113894;28;20691;-78
2022/04/26 11:39:52;;;;;;;1.00;1.00;;;14.30;54.00;13.90;98068.00;;;;5114585;28;20247;-80
2022/04/26 11:42:20;;;;;;;1.70;1.60;;;14.50;52.20;14.30;98091.00;;;;5096773;28;20296;-79
2022/04/26 11:45:01;;;;;;;0.77;0.77;;;14.60;51.80;14.40;98097.00;;;;5114586;28;20194;-79
2022/04/26 11:47:47;;;;;;;1.30;1.30;;;14.80;48.40;14.00;98089.00;;;;5114484;28;20587;-79
2022/04/26 11:50:20;;;;;;;0.80;0.80;;;14.60;49.30;14.00;98082.00;;;;5114657;28;20221;-78
2022/04/26 11:52:49;;;;;;;1.13;1.00;;;14.50;49.40;14.50;98069.00;;;;5114020;28;20268;-78
2022/04/26 11:55:24;;;;;;;1.03;1.03;;;14.80;49.00;14.80;98076.00;;;;5114358;28;20526;-80
2022/04/26 11:57:52;;;;;;;0.60;0.60;;;15.10;45.20;14.90;98062.00;;;;5114445;28;20598;-79
2022/04/26 12:00:21;;;;;;;0.60;0.60;;;15.30;44.80;15.20;98084.00;;;;5096336;28;20269;-79
2022/04/26 12:02:50;;;;;;;0.90;0.90;;;15.50;46.90;14.90;98093.00;;;;5096056;28;20803;-77
2022/04/26 12:05:21;;;;;;;1.10;1.10;;;15.30;45.00;14.70;98099.00;;;;5114157;28;20637;-79
2022/04/26 12:07:50;;;;;;;1.10;1.10;;;15.30;45.20;14.70;98101.00;;;;5114197;28;20216;-78
2022/04/26 12:10:29;;;;;;;1.13;1.13;;;15.20;46.70;14.50;98094.00;;;;5096321;28;20229;-78
2022/04/26 12:12:57;;;;;;;1.63;1.53;;;15.10;47.70;14.70;98100.00;;;;5114233;28;20245;-79
2022/04/26 12:15:26;;;;;;;0.70;0.70;;;15.10;48.30;15.10;98090.00;;;;5113865;28;20205;-78
2022/04/26 12:18:11;;;;;;;0.70;0.70;;;15.30;48.10;15.30;98103.00;;;;5113166;28;20201;-79
2022/04/26 12:20:55;;;;;;;0.93;0.93;;;15.60;44.60;15.40;98112.00;;;;5096290;28;20220;-79
2022/04/26 12:23:23;;;;;;;0.87;0.87;;;15.70;43.70;14.20;98112.00;;;;5114488;28;20245;-79
2022/04/26 12:25:54;;;;;;;0.80;0.80;;;15.00;45.50;14.00;98142.00;;;;5114433;28;20218;-79
2022/04/26 12:28:20;;;;;;;0.87;0.87;;;14.80;43.90;14.10;98131.00;;;;5114325;28;20280;-79
2022/04/26 12:30:47;;;;;;;0.67;0.67;;;14.70;43.50;14.20;98129.00;;;;5114424;28;20204;-79
2022/04/26 12:33:29;;;;;;;0.63;0.63;;;14.80;40.90;14.10;98119.00;;;;5096130;28;20676;-79
2022/04/26 12:36:01;;;;;;;0.90;0.90;;;14.60;42.80;14.40;98126.00;;;;5114333;28;20222;-79
2022/04/26 12:38:28;;;;;;;0.87;0.87;;;14.80;44.70;14.00;98114.00;;;;5114910;28;20269;-79
2022/04/26 12:41:05;;;;;;;0.70;0.70;;;14.70;45.70;14.30;98142.00;;;;5114067;28;20529;-79
2022/04/26 12:43:33;;;;;;;0.60;0.60;;;14.80;46.80;14.20;98126.00;;;;5114513;28;20213;-77
2022/04/26 12:46:02;;;;;;;0.63;0.63;;;14.70;50.60;13.90;98138.00;;;;5114234;28;20277;-78
2022/04/26 12:51:21;;;;;;;0.67;0.67;;;14.60;53.50;14.00;98135.00;;;;5119026;28;20627;-78
2022/04/26 12:53:49;;;;;;;0.80;0.80;;;14.60;50.30;14.90;98107.00;;;;5121141;28;20288;-79
2022/04/26 12:56:18;;;;;;;0.63;0.63;;;15.10;53.70;15.50;98118.00;;;;5117262;28;20210;-79
2022/04/26 12:58:47;;;;;;;0.57;0.57;;;15.70;48.30;15.80;98117.00;;;;5117647;28;20205;-80
2022/04/26 13:01:15;;;;;;;0.40;0.40;;;15.90;48.00;16.40;98131.00;;;;5117398;28;20309;-78
2022/04/26 13:03:45;;;;;;;0.87;0.70;;;16.40;47.10;16.20;98118.00;;;;5117797;28;20197;-78
2022/04/26 13:06:17;;;;;;;0.47;0.47;;;16.40;45.10;16.30;98125.00;;;;5117648;28;20190;-81
2022/04/26 13:08:46;;;;;;;0.50;0.50;;;16.60;41.50;16.20;98136.00;;;;5117627;28;20274;-79
2022/04/26 13:11:17;;;;;;;0.50;0.50;;;16.60;42.00;16.20;98126.00;;;;5099443;28;20595;-79
2022/04/26 13:13:48;;;;;;;1.57;1.17;;;16.60;41.60;16.20;98133.00;;;;5117138;28;20205;-79
2022/04/26 13:16:14;;;;;;;0.60;0.60;;;16.60;41.20;17.00;98133.00;;;;5117013;28;20208;-79
2022/04/26 13:18:41;;;;;;;0.57;0.57;;;17.10;40.40;17.30;98130.00;;;;5117284;28;20281;-78
2022/04/26 13:21:08;;;;;;;0.53;0.53;;;17.40;39.50;16.30;98133.00;;;;5116903;28;20213;-80
2022/04/26 13:23:35;;;;;;;0.40;0.40;;;16.80;38.30;15.90;98131.00;;;;5117318;28;20278;-79
2022/04/26 13:26:02;;;;;;;0.60;0.60;;;16.50;39.60;15.70;98135.00;;;;5117039;28;20194;-78
2022/04/26 13:28:30;;;;;;;0.60;0.60;;;16.30;40.10;15.40;98135.00;;;;5117388;28;20193;-79
2022/04/26 13:30:57;;;;;;;0.43;0.43;;;15.90;42.00;16.40;98139.00;;;;5098879;28;20205;-79
2022/04/26 13:33:26;;;;;;;0.50;0.50;;;16.60;40.80;16.30;98143.00;;;;5117210;28;20317;-78
2022/04/26 13:35:56;;;;;;;0.80;0.80;;;16.70;38.60;16.70;98108.00;;;;5117172;28;20208;-79
2022/04/26 13:38:23;;;;;;;0.60;0.60;;;17.00;39.10;17.30;98122.00;;;;5117515;28;20201;-79
2022/04/26 13:40:53;;;;;;;0.43;0.43;;;17.50;37.90;18.00;98126.00;;;;5099060;28;20592;-80
2022/04/26 13:43:23;;;;;;;0.77;0.77;;;17.90;37.60;18.40;98123.00;;;;5117146;28;20617;-79
2022/04/26 13:45:52;;;;;;;0.57;0.57;;;18.40;36.30;18.20;98130.00;;;;5117438;28;20225;-79
2022/04/26 13:48:19;;;;;;;0.67;0.67;;;18.30;34.80;18.30;98127.00;;;;5116892;28;20205;-78
2022/04/26 13:50:46;;;;;;;0.80;0.80;;;18.60;35.20;18.70;98126.00;;;;5116102;28;20283;-75
2022/04/26 13:53:12;;;;;;;0.60;0.60;;;18.90;33.00;18.10;98133.00;;;;5116238;28;20222;-75
2022/04/26 13:55:39;;;;;;;0.60;0.60;;;18.50;32.50;17.40;98132.00;;;;5116041;28;20293;-76
2022/04/26 13:58:08;;;;;;;0.60;0.60;;;18.00;32.60;18.30;98131.00;;;;5098070;28;20227;-76
2022/04/26 14:00:37;;;;;;;0.73;0.73;;;18.50;34.80;19.20;98119.00;;;;5097502;28;20724;-76
2022/04/26 14:03:06;;;;;;;0.60;0.60;;;19.20;32.10;19.80;98115.00;;;;5115961;28;20197;-77
2022/04/26 14:05:34;;;;;;;0.83;0.83;;;19.50;31.50;20.50;98118.00;;;;5116273;28;20229;-77
2022/04/26 14:08:01;;;;;;;0.70;0.70;;;20.30;30.30;21.10;98169.00;;;;5116111;28;20201;-77
2022/04/26 14:10:31;;;;;;;1.47;1.23;;;21.00;29.50;18.80;98169.00;;;;5115855;28;20537;-76
2022/04/26 14:12:58;;;;;;;0.70;0.70;;;19.70;28.80;17.60;98179.00;;;;5115712;28;20551;-77
2022/04/26 14:23:42;;;;;;;0.40;0.40;;;16.40;35.90;16.40;98137.00;;;;5114827;28;20198;-76
2022/04/26 14:26:09;;;;;;;0.50;0.50;;;16.70;35.00;16.80;98151.00;;;;5115461;28;20197;-75
2022/04/26 14:28:36;;;;;;;0.60;0.60;;;17.10;33.90;15.70;98123.00;;;;5116135;28;20182;-77
2022/04/26 14:31:04;;;;;;;0.80;0.80;;;16.40;34.60;18.00;98110.00;;;;5115389;28;20217;-77
2022/04/26 14:33:33;;;;;;;0.60;0.60;;;17.70;34.30;18.30;98111.00;;;;5098540;28;20221;-75
2022/04/26 14:36:04;;;;;;;0.50;0.50;;;18.30;33.80;19.00;98090.00;;;;5115238;28;20204;-76
2022/04/26 14:38:31;;;;;;;0.97;0.97;;;18.90;31.10;20.50;98122.00;;;;5115162;28;20766;-77
2022/04/26 14:40:59;;;;;;;0.50;0.50;;;20.10;30.00;21.70;98117.00;;;;5115842;28;20204;-76
2022/04/26 14:43:26;;;;;;;0.67;0.67;;;21.40;27.60;22.40;98115.00;;;;5115128;28;20266;-74
2022/04/26 14:45:55;;;;;;;0.80;0.80;;;22.10;25.30;22.50;98125.00;;;;5097261;28;20258;-74
2022/04/26 14:48:23;;;;;;;1.00;1.00;;;22.40;26.30;23.20;98140.00;;;;5097969;28;20263;-80
2022/04/26 14:50:50;;;;;;;0.47;0.47;;;22.90;23.30;22.80;98116.00;;;;5115402;28;20225;-77
2022/04/26 14:53:18;;;;;;;0.77;0.77;;;22.80;22.50;21.70;98155.00;;;;5114921;28;20636;-76
2022/04/26 14:55:45;;;;;;;0.90;0.90;;;22.30;23.30;22.20;98167.00;;;;5114818;28;20190;-77
2022/04/26 14:58:14;;;;;;;0.53;0.53;;;22.20;25.60;21.40;98150.00;;;;5114864;28;20299;-76
2022/04/26 15:00:41;;;;;;;0.73;0.73;;;21.80;25.20;22.00;98174.00;;;;5114760;28;20198;-76
2022/04/26 15:03:07;;;;;;;0.93;0.93;;;22.00;26.30;20.80;98185.00;;;;5114874;28;20198;-75
2022/04/26 15:05:34;;;;;;;1.00;0.90;;;21.40;27.00;19.30;98189.00;;;;5114780;28;20193;-76
2022/04/26 15:10:45;;;;;;;0.70;0.70;;;19.20;31.40;17.10;98187.00;;;;5113806;28;20228;-76